sensor_id;sensor_type;location;lat;lon;timestamp;pressure;altitude;pressure_sealevel;temperature;humidity
69971;BME280;57301;50.328;8.542;2023-04-08T00:01:32;98886.84;;;4.25;94.90
69971;BME280;57301;50.328;8.542;2023-04-08T00:03:58;98874.59;;;4.12;96.08
69971;BME280;57301;50.328;8.542;2023-04-08T00:06:25;98885.31;;;4.09;96.73
69971;BME280;57301;50.328;8.542;2023-04-08T00:08:52;98880.28;;;4.06;95.92
69971;BME280;57301;50.328;8.542;2023-04-08T00:11:19;98882.69;;;4.09;96.18
69971;BME280;57301;50.328;8.542;2023-04-08T00:13:45;98879.81;;;3.99;97.31
69971;BME280;57301;50.328;8.542;2023-04-08T00:16:12;98878.97;;;3.98;97.69
69971;BME280;57301;50.328;8.542;2023-04-08T00:18:38;98884.06;;;4.01;96.56
69971;BME280;57301;50.328;8.542;2023-04-08T00:21:05;98881.31;;;4.03;95.65
69971;BME280;57301;50.328;8.542;2023-04-08T00:23:31;98882.38;;;4.00;95.28
69971;BME280;57301;50.328;8.542;2023-04-08T00:25:58;98884.66;;;3.92;95.53
69971;BME280;57301;50.328;8.542;2023-04-08T00:28:24;98888.47;;;3.88;95.66
69971;BME280;57301;50.328;8.542;2023-04-08T00:30:52;98885.72;;;3.90;95.31
69971;BME280;57301;50.328;8.542;2023-04-08T00:33:18;98882.66;;;3.83;94.83
69971;BME280;57301;50.328;8.542;2023-04-08T00:35:44;98890.13;;;3.76;94.61
69971;BME280;57301;50.328;8.542;2023-04-08T00:38:11;98886.25;;;3.55;95.58
69971;BME280;57301;50.328;8.542;2023-04-08T00:40:38;98888.97;;;3.54;96.82
69971;BME280;57301;50.328;8.542;2023-04-08T00:43:04;98874.84;;;3.55;96.89
69971;BME280;57301;50.328;8.542;2023-04-08T00:45:32;98891.38;;;3.44;97.58
69971;BME280;57301;50.328;8.542;2023-04-08T00:47:58;98889.28;;;3.49;97.01
69971;BME280;57301;50.328;8.542;2023-04-08T00:50:25;98884.22;;;3.46;96.36
69971;BME280;57301;50.328;8.542;2023-04-08T00:52:52;98886.97;;;3.30;97.21
69971;BME280;57301;50.328;8.542;2023-04-08T00:55:18;98889.00;;;3.27;98.03
69971;BME280;57301;50.328;8.542;2023-04-08T00:57:45;98890.00;;;3.24;97.96
69971;BME280;57301;50.328;8.542;2023-04-08T01:00:13;98893.69;;;3.21;97.91
69971;BME280;57301;50.328;8.542;2023-04-08T01:03:02;98891.34;;;3.17;97.13
69971;BME280;57301;50.328;8.542;2023-04-08T01:07:58;98896.28;;;3.09;97.06
69971;BME280;57301;50.328;8.542;2023-04-08T01:10:29;98903.34;;;3.08;96.42
69971;BME280;57301;50.328;8.542;2023-04-08T01:12:58;98891.56;;;3.00;96.11
69971;BME280;57301;50.328;8.542;2023-04-08T01:15:28;98906.44;;;2.86;96.21
69971;BME280;57301;50.328;8.542;2023-04-08T01:17:56;98904.78;;;2.71;96.35
69971;BME280;57301;50.328;8.542;2023-04-08T01:20:25;98902.88;;;2.73;96.53
69971;BME280;57301;50.328;8.542;2023-04-08T01:25:38;98899.50;;;2.57;96.82
69971;BME280;57301;50.328;8.542;2023-04-08T01:28:08;98895.75;;;2.47;97.13
69971;BME280;57301;50.328;8.542;2023-04-08T01:30:37;98899.41;;;2.44;97.74
69971;BME280;57301;50.328;8.542;2023-04-08T01:33:04;98905.22;;;2.35;98.22
69971;BME280;57301;50.328;8.542;2023-04-08T01:35:31;98903.97;;;2.26;99.50
69971;BME280;57301;50.328;8.542;2023-04-08T01:37:59;98902.56;;;2.21;100.00
69971;BME280;57301;50.328;8.542;2023-04-08T01:40:26;98903.00;;;2.13;100.00
69971;BME280;57301;50.328;8.542;2023-04-08T01:42:54;98904.63;;;2.15;100.00
69971;BME280;57301;50.328;8.542;2023-04-08T01:45:22;98909.69;;;2.19;99.96
69971;BME280;57301;50.328;8.542;2023-04-08T01:47:50;98903.59;;;2.18;99.61
69971;BME280;57301;50.328;8.542;2023-04-08T01:50:18;98907.25;;;2.15;98.91
69971;BME280;57301;50.328;8.542;2023-04-08T01:52:47;98906.44;;;2.15;98.35
69971;BME280;57301;50.328;8.542;2023-04-08T01:55:15;98903.47;;;2.05;97.54
69971;BME280;57301;50.328;8.542;2023-04-08T01:57:46;98904.00;;;1.96;97.07
69971;BME280;57301;50.328;8.542;2023-04-08T02:00:15;98905.22;;;1.91;97.56
69971;BME280;57301;50.328;8.542;2023-04-08T02:02:44;98903.38;;;1.77;98.69
69971;BME280;57301;50.328;8.542;2023-04-08T02:05:13;98909.09;;;1.69;100.00
69971;BME280;57301;50.328;8.542;2023-04-08T02:07:39;98903.00;;;1.69;100.00
69971;BME280;57301;50.328;8.542;2023-04-08T02:10:06;98907.44;;;1.82;100.00
69971;BME280;57301;50.328;8.542;2023-04-08T02:12:33;98896.66;;;1.87;100.00
69971;BME280;57301;50.328;8.542;2023-04-08T02:15:00;98910.75;;;1.86;100.00
69971;BME280;57301;50.328;8.542;2023-04-08T02:17:33;98916.59;;;1.91;100.00
69971;BME280;57301;50.328;8.542;2023-04-08T02:20:09;98917.09;;;1.98;100.00
69971;BME280;57301;50.328;8.542;2023-04-08T02:22:37;98916.50;;;1.93;100.00
69971;BME280;57301;50.328;8.542;2023-04-08T02:25:08;98917.25;;;1.95;100.00
69971;BME280;57301;50.328;8.542;2023-04-08T02:27:38;98919.78;;;1.96;100.00
69971;BME280;57301;50.328;8.542;2023-04-08T02:30:06;98916.84;;;1.86;100.00
69971;BME280;57301;50.328;8.542;2023-04-08T02:32:33;98920.81;;;1.94;100.00
69971;BME280;57301;50.328;8.542;2023-04-08T02:35:01;98916.88;;;2.01;100.00
69971;BME280;57301;50.328;8.542;2023-04-08T02:37:30;98927.16;;;2.05;100.00
69971;BME280;57301;50.328;8.542;2023-04-08T02:39:57;98923.84;;;2.02;100.00
69971;BME280;57301;50.328;8.542;2023-04-08T02:42:23;98933.25;;;2.06;100.00
69971;BME280;57301;50.328;8.542;2023-04-08T02:44:50;98922.81;;;2.04;100.00
69971;BME280;57301;50.328;8.542;2023-04-08T02:47:17;98929.03;;;2.03;100.00
69971;BME280;57301;50.328;8.542;2023-04-08T02:49:43;98932.94;;;1.96;99.70
69971;BME280;57301;50.328;8.542;2023-04-08T02:52:10;98928.22;;;1.87;99.60
69971;BME280;57301;50.328;8.542;2023-04-08T02:54:36;98931.78;;;1.86;100.00
69971;BME280;57301;50.328;8.542;2023-04-08T02:57:03;98931.59;;;1.89;100.00
69971;BME280;57301;50.328;8.542;2023-04-08T02:59:29;98935.06;;;1.89;100.00
69971;BME280;57301;50.328;8.542;2023-04-08T03:01:56;98934.22;;;1.89;99.97
69971;BME280;57301;50.328;8.542;2023-04-08T03:04:22;98936.78;;;1.91;99.38
69971;BME280;57301;50.328;8.542;2023-04-08T03:06:49;98941.38;;;1.87;98.66
69971;BME280;57301;50.328;8.542;2023-04-08T03:09:15;98936.56;;;1.79;99.13
69971;BME280;57301;50.328;8.542;2023-04-08T03:11:42;98938.63;;;1.88;99.43
69971;BME280;57301;50.328;8.542;2023-04-08T03:14:10;98939.31;;;1.92;99.24
69971;BME280;57301;50.328;8.542;2023-04-08T03:16:36;98938.06;;;1.83;98.71
69971;BME280;57301;50.328;8.542;2023-04-08T03:19:03;98941.66;;;1.67;98.75
69971;BME280;57301;50.328;8.542;2023-04-08T03:21:29;98939.28;;;1.62;98.64
69971;BME280;57301;50.328;8.542;2023-04-08T03:23:57;98935.47;;;1.52;98.72
69971;BME280;57301;50.328;8.542;2023-04-08T03:26:23;98946.09;;;1.50;99.24
69971;BME280;57301;50.328;8.542;2023-04-08T03:28:52;98945.34;;;1.48;99.47
69971;BME280;57301;50.328;8.542;2023-04-08T03:31:18;98947.97;;;1.48;99.11
69971;BME280;57301;50.328;8.542;2023-04-08T03:33:46;98940.47;;;1.41;98.56
69971;BME280;57301;50.328;8.542;2023-04-08T03:36:13;98948.03;;;1.47;97.61
69971;BME280;57301;50.328;8.542;2023-04-08T03:38:39;98953.22;;;1.17;97.78
69971;BME280;57301;50.328;8.542;2023-04-08T03:41:06;98957.16;;;1.08;98.40
69971;BME280;57301;50.328;8.542;2023-04-08T03:43:32;98957.41;;;1.03;99.18
69971;BME280;57301;50.328;8.542;2023-04-08T03:46:00;98956.00;;;1.14;99.27
69971;BME280;57301;50.328;8.542;2023-04-08T03:48:26;98951.69;;;1.13;99.22
69971;BME280;57301;50.328;8.542;2023-04-08T03:50:53;98961.44;;;1.11;98.91
69971;BME280;57301;50.328;8.542;2023-04-08T03:53:19;98955.72;;;1.02;99.09
69971;BME280;57301;50.328;8.542;2023-04-08T03:55:48;98953.44;;;0.96;100.00
69971;BME280;57301;50.328;8.542;2023-04-08T03:58:15;98941.16;;;0.97;100.00
69971;BME280;57301;50.328;8.542;2023-04-08T04:00:42;98950.81;;;0.96;100.00
69971;BME280;57301;50.328;8.542;2023-04-08T04:03:08;98958.94;;;1.07;100.00
69971;BME280;57301;50.328;8.542;2023-04-08T04:05:38;98955.22;;;0.96;99.96
69971;BME280;57301;50.328;8.542;2023-04-08T04:08:05;98962.19;;;0.79;99.53
69971;BME280;57301;50.328;8.542;2023-04-08T04:10:32;98959.00;;;0.74;99.89
69971;BME280;57301;50.328;8.542;2023-04-08T04:12:58;98958.81;;;0.77;99.75
69971;BME280;57301;50.328;8.542;2023-04-08T04:15:25;98958.06;;;0.75;98.58
69971;BME280;57301;50.328;8.542;2023-04-08T04:17:51;98969.16;;;0.80;98.22
69971;BME280;57301;50.328;8.542;2023-04-08T04:20:18;98962.16;;;0.64;97.83
69971;BME280;57301;50.328;8.542;2023-04-08T04:22:45;98965.13;;;0.40;98.14
69971;BME280;57301;50.328;8.542;2023-04-08T04:25:11;98960.19;;;0.34;98.99
69971;BME280;57301;50.328;8.542;2023-04-08T04:27:38;98963.22;;;0.44;98.85
69971;BME280;57301;50.328;8.542;2023-04-08T04:30:05;98968.13;;;0.50;98.82
69971;BME280;57301;50.328;8.542;2023-04-08T04:32:32;98970.47;;;0.39;98.00
69971;BME280;57301;50.328;8.542;2023-04-08T04:34:59;98970.59;;;0.36;98.49
69971;BME280;57301;50.328;8.542;2023-04-08T04:37:25;98972.78;;;0.28;98.52
69971;BME280;57301;50.328;8.542;2023-04-08T04:39:52;98977.84;;;0.31;98.73
69971;BME280;57301;50.328;8.542;2023-04-08T04:42:19;98977.00;;;0.30;99.70
69971;BME280;57301;50.328;8.542;2023-04-08T04:44:45;98963.13;;;0.28;99.64
69971;BME280;57301;50.328;8.542;2023-04-08T04:47:13;98961.81;;;0.37;100.00
69971;BME280;57301;50.328;8.542;2023-04-08T04:49:39;98960.91;;;0.38;100.00
69971;BME280;57301;50.328;8.542;2023-04-08T04:52:05;98967.53;;;0.45;100.00
69971;BME280;57301;50.328;8.542;2023-04-08T04:54:32;98967.75;;;0.40;100.00
69971;BME280;57301;50.328;8.542;2023-04-08T04:56:59;98958.81;;;0.27;100.00
69971;BME280;57301;50.328;8.542;2023-04-08T04:59:26;98971.13;;;0.42;100.00
69971;BME280;57301;50.328;8.542;2023-04-08T05:01:52;98966.28;;;0.52;100.00
69971;BME280;57301;50.328;8.542;2023-04-08T05:04:19;98971.53;;;0.52;100.00
69971;BME280;57301;50.328;8.542;2023-04-08T05:06:45;98974.38;;;0.47;99.04
69971;BME280;57301;50.328;8.542;2023-04-08T05:09:12;98977.00;;;0.47;99.21
69971;BME280;57301;50.328;8.542;2023-04-08T05:11:38;98980.09;;;0.56;98.79
69971;BME280;57301;50.328;8.542;2023-04-08T05:14:05;98978.16;;;0.42;99.21
69971;BME280;57301;50.328;8.542;2023-04-08T05:16:33;98987.25;;;0.52;99.10
69971;BME280;57301;50.328;8.542;2023-04-08T05:18:59;98988.63;;;0.59;99.07
69971;BME280;57301;50.328;8.542;2023-04-08T05:21:26;98986.63;;;0.64;98.96
69971;BME280;57301;50.328;8.542;2023-04-08T05:23:53;98994.19;;;0.70;98.71
69971;BME280;57301;50.328;8.542;2023-04-08T05:26:19;98993.53;;;0.83;97.73
69971;BME280;57301;50.328;8.542;2023-04-08T05:28:47;99000.16;;;0.90;96.85
69971;BME280;57301;50.328;8.542;2023-04-08T05:31:15;99000.25;;;0.88;95.95
69971;BME280;57301;50.328;8.542;2023-04-08T05:33:41;99001.84;;;0.91;95.91
69971;BME280;57301;50.328;8.542;2023-04-08T05:36:10;98995.19;;;1.01;95.81
69971;BME280;57301;50.328;8.542;2023-04-08T05:38:37;98996.97;;;1.00;95.82
69971;BME280;57301;50.328;8.542;2023-04-08T05:41:03;98999.78;;;1.13;96.41
69971;BME280;57301;50.328;8.542;2023-04-08T05:43:32;99004.38;;;1.25;96.24
69971;BME280;57301;50.328;8.542;2023-04-08T05:45:58;99000.25;;;1.37;95.90
69971;BME280;57301;50.328;8.542;2023-04-08T05:48:25;99006.44;;;1.52;95.53
69971;BME280;57301;50.328;8.542;2023-04-08T05:50:51;98999.56;;;1.65;94.29
69971;BME280;57301;50.328;8.542;2023-04-08T05:53:18;99006.75;;;1.77;92.67
69971;BME280;57301;50.328;8.542;2023-04-08T05:55:44;99000.59;;;1.78;92.71
69971;BME280;57301;50.328;8.542;2023-04-08T05:58:11;99006.41;;;1.83;92.09
69971;BME280;57301;50.328;8.542;2023-04-08T06:00:37;99007.59;;;1.94;91.93
69971;BME280;57301;50.328;8.542;2023-04-08T06:03:04;99019.78;;;2.10;92.14
69971;BME280;57301;50.328;8.542;2023-04-08T06:05:30;99025.00;;;2.26;92.44
69971;BME280;57301;50.328;8.542;2023-04-08T06:07:58;99026.28;;;2.35;92.02
69971;BME280;57301;50.328;8.542;2023-04-08T06:10:24;99019.75;;;2.56;91.76
69971;BME280;57301;50.328;8.542;2023-04-08T06:12:51;99027.19;;;2.64;91.50
69971;BME280;57301;50.328;8.542;2023-04-08T06:15:17;99028.31;;;2.60;91.72
69971;BME280;57301;50.328;8.542;2023-04-08T06:17:44;99027.94;;;2.66;92.48
69971;BME280;57301;50.328;8.542;2023-04-08T06:20:11;99028.28;;;2.46;94.91
69971;BME280;57301;50.328;8.542;2023-04-08T06:22:37;99029.38;;;2.86;95.49
69971;BME280;57301;50.328;8.542;2023-04-08T06:25:04;99027.25;;;3.21;94.73
69971;BME280;57301;50.328;8.542;2023-04-08T06:27:31;99033.25;;;3.52;93.81
69971;BME280;57301;50.328;8.542;2023-04-08T06:29:57;99036.41;;;3.71;93.26
69971;BME280;57301;50.328;8.542;2023-04-08T06:32:24;99036.75;;;3.93;90.60
69971;BME280;57301;50.328;8.542;2023-04-08T06:34:51;99043.78;;;4.07;89.35
69971;BME280;57301;50.328;8.542;2023-04-08T06:37:17;99048.25;;;4.19;87.85
69971;BME280;57301;50.328;8.542;2023-04-08T06:39:44;99051.66;;;4.34;87.92
69971;BME280;57301;50.328;8.542;2023-04-08T06:42:10;99049.28;;;4.44;86.97
69971;BME280;57301;50.328;8.542;2023-04-08T06:44:37;99050.44;;;4.52;87.43
69971;BME280;57301;50.328;8.542;2023-04-08T06:47:03;99053.28;;;4.37;87.29
69971;BME280;57301;50.328;8.542;2023-04-08T06:49:30;99052.78;;;4.57;88.65
69971;BME280;57301;50.328;8.542;2023-04-08T06:51:56;99054.84;;;4.39;90.23
69971;BME280;57301;50.328;8.542;2023-04-08T06:54:22;99050.50;;;4.78;90.64
69971;BME280;57301;50.328;8.542;2023-04-08T06:56:49;99056.44;;;5.20;90.10
69971;BME280;57301;50.328;8.542;2023-04-08T06:59:16;99065.97;;;5.35;89.62
69971;BME280;57301;50.328;8.542;2023-04-08T07:01:42;99053.66;;;5.59;88.77
69971;BME280;57301;50.328;8.542;2023-04-08T07:04:09;99060.31;;;5.78;87.64
69971;BME280;57301;50.328;8.542;2023-04-08T07:06:36;99062.06;;;5.90;88.40
69971;BME280;57301;50.328;8.542;2023-04-08T07:09:02;99060.34;;;5.89;87.55
69971;BME280;57301;50.328;8.542;2023-04-08T07:11:29;99066.19;;;5.94;88.33
69971;BME280;57301;50.328;8.542;2023-04-08T07:13:56;99062.16;;;6.01;88.04
69971;BME280;57301;50.328;8.542;2023-04-08T07:16:22;99067.88;;;5.95;89.06
69971;BME280;57301;50.328;8.542;2023-04-08T07:18:49;99059.56;;;6.12;89.32
69971;BME280;57301;50.328;8.542;2023-04-08T07:21:17;99070.75;;;6.29;88.48
69971;BME280;57301;50.328;8.542;2023-04-08T07:23:43;99062.97;;;6.14;88.70
69971;BME280;57301;50.328;8.542;2023-04-08T07:26:10;99073.16;;;6.32;89.07
69971;BME280;57301;50.328;8.542;2023-04-08T07:28:36;99073.78;;;6.35;88.97
69971;BME280;57301;50.328;8.542;2023-04-08T07:31:16;99070.66;;;6.65;88.66
69971;BME280;57301;50.328;8.542;2023-04-08T07:33:44;99070.63;;;6.89;87.87
69971;BME280;57301;50.328;8.542;2023-04-08T07:36:11;99075.97;;;6.65;87.76
69971;BME280;57301;50.328;8.542;2023-04-08T07:38:38;99072.94;;;6.94;87.07
69971;BME280;57301;50.328;8.542;2023-04-08T07:41:06;99086.56;;;7.12;85.53
69971;BME280;57301;50.328;8.542;2023-04-08T07:43:32;99091.53;;;7.16;84.50
69971;BME280;57301;50.328;8.542;2023-04-08T07:46:00;99090.91;;;7.02;84.75
69971;BME280;57301;50.328;8.542;2023-04-08T07:48:29;99088.50;;;7.10;84.84
69971;BME280;57301;50.328;8.542;2023-04-08T07:50:56;99081.88;;;7.15;85.48
69971;BME280;57301;50.328;8.542;2023-04-08T07:53:35;99085.03;;;7.20;85.40
69971;BME280;57301;50.328;8.542;2023-04-08T07:56:02;99085.16;;;7.19;84.95
69971;BME280;57301;50.328;8.542;2023-04-08T07:58:32;99091.06;;;7.22;85.20
69971;BME280;57301;50.328;8.542;2023-04-08T08:00:58;99089.16;;;7.36;84.39
69971;BME280;57301;50.328;8.542;2023-04-08T08:03:25;99087.47;;;7.46;84.09
69971;BME280;57301;50.328;8.542;2023-04-08T08:05:52;99083.34;;;7.19;84.66
69971;BME280;57301;50.328;8.542;2023-04-08T08:08:19;99091.22;;;7.43;85.10
69971;BME280;57301;50.328;8.542;2023-04-08T08:10:45;99094.00;;;7.64;83.57
69971;BME280;57301;50.328;8.542;2023-04-08T08:13:11;99101.84;;;7.66;82.39
69971;BME280;57301;50.328;8.542;2023-04-08T08:15:42;99098.69;;;7.72;82.35
69971;BME280;57301;50.328;8.542;2023-04-08T08:18:08;99102.19;;;7.72;83.57
69971;BME280;57301;50.328;8.542;2023-04-08T08:20:35;99100.16;;;7.87;83.08
69971;BME280;57301;50.328;8.542;2023-04-08T08:23:02;99089.91;;;7.94;81.86
69971;BME280;57301;50.328;8.542;2023-04-08T08:25:28;99091.31;;;7.98;81.12
69971;BME280;57301;50.328;8.542;2023-04-08T08:27:54;99094.94;;;8.08;81.77
69971;BME280;57301;50.328;8.542;2023-04-08T08:30:21;99104.34;;;8.12;81.27
69971;BME280;57301;50.328;8.542;2023-04-08T08:32:48;99102.88;;;8.19;81.39
69971;BME280;57301;50.328;8.542;2023-04-08T08:35:16;99095.97;;;8.28;81.27
69971;BME280;57301;50.328;8.542;2023-04-08T08:37:43;99108.06;;;8.43;79.97
69971;BME280;57301;50.328;8.542;2023-04-08T08:40:09;99116.84;;;8.55;78.64
69971;BME280;57301;50.328;8.542;2023-04-08T08:42:37;99124.91;;;8.65;78.54
69971;BME280;57301;50.328;8.542;2023-04-08T08:45:04;99123.56;;;8.70;77.80
69971;BME280;57301;50.328;8.542;2023-04-08T08:47:32;99128.03;;;8.70;78.38
69971;BME280;57301;50.328;8.542;2023-04-08T08:49:59;99127.38;;;8.77;78.29
69971;BME280;57301;50.328;8.542;2023-04-08T08:52:25;99130.28;;;8.85;77.51
69971;BME280;57301;50.328;8.542;2023-04-08T08:54:58;99130.66;;;9.02;77.54
69971;BME280;57301;50.328;8.542;2023-04-08T08:57:25;99126.09;;;9.25;76.88
69971;BME280;57301;50.328;8.542;2023-04-08T08:59:52;99127.19;;;9.43;75.52
69971;BME280;57301;50.328;8.542;2023-04-08T09:02:28;99131.84;;;9.51;74.92
69971;BME280;57301;50.328;8.542;2023-04-08T09:05:02;99142.25;;;9.54;73.81
69971;BME280;57301;50.328;8.542;2023-04-08T09:07:34;99134.75;;;9.68;72.97
69971;BME280;57301;50.328;8.542;2023-04-08T09:10:02;99139.91;;;9.91;72.26
69971;BME280;57301;50.328;8.542;2023-04-08T09:12:29;99141.50;;;10.03;72.90
69971;BME280;57301;50.328;8.542;2023-04-08T09:15:07;99144.63;;;10.08;72.17
69971;BME280;57301;50.328;8.542;2023-04-08T09:17:38;99141.66;;;10.32;73.10
69971;BME280;57301;50.328;8.542;2023-04-08T09:20:09;99144.53;;;10.69;68.64
69971;BME280;57301;50.328;8.542;2023-04-08T09:22:59;99140.03;;;10.70;68.64
69971;BME280;57301;50.328;8.542;2023-04-08T09:25:31;99144.38;;;10.71;66.65
69971;BME280;57301;50.328;8.542;2023-04-08T09:27:58;99151.22;;;10.54;66.27
69971;BME280;57301;50.328;8.542;2023-04-08T09:30:26;99159.75;;;10.48;65.08
69971;BME280;57301;50.328;8.542;2023-04-08T09:32:54;99153.84;;;10.25;66.26
69971;BME280;57301;50.328;8.542;2023-04-08T09:35:22;99146.56;;;10.06;67.89
69971;BME280;57301;50.328;8.542;2023-04-08T09:37:49;99148.03;;;9.89;66.31
69971;BME280;57301;50.328;8.542;2023-04-08T09:40:19;99143.47;;;9.71;64.39
69971;BME280;57301;50.328;8.542;2023-04-08T09:42:47;99150.78;;;9.78;65.05
69971;BME280;57301;50.328;8.542;2023-04-08T09:45:18;99155.81;;;10.02;62.24
69971;BME280;57301;50.328;8.542;2023-04-08T09:50:42;99150.19;;;10.05;64.30
69971;BME280;57301;50.328;8.542;2023-04-08T09:53:32;99157.03;;;9.98;64.17
69971;BME280;57301;50.328;8.542;2023-04-08T09:56:01;99160.84;;;9.95;64.47
69971;BME280;57301;50.328;8.542;2023-04-08T09:58:41;99166.84;;;9.98;64.65
69971;BME280;57301;50.328;8.542;2023-04-08T10:01:13;99166.25;;;9.84;68.12
69971;BME280;57301;50.328;8.542;2023-04-08T10:03:50;99166.25;;;9.84;68.59
69971;BME280;57301;50.328;8.542;2023-04-08T10:06:18;99164.28;;;9.86;68.04
69971;BME280;57301;50.328;8.542;2023-04-08T10:08:47;99165.00;;;9.88;65.41
69971;BME280;57301;50.328;8.542;2023-04-08T10:11:14;99172.13;;;9.88;65.94
69971;BME280;57301;50.328;8.542;2023-04-08T10:13:42;99172.72;;;9.91;66.49
69971;BME280;57301;50.328;8.542;2023-04-08T10:16:22;99172.41;;;9.85;65.07
69971;BME280;57301;50.328;8.542;2023-04-08T10:18:51;99172.69;;;9.61;63.78
69971;BME280;57301;50.328;8.542;2023-04-08T10:24:00;99179.06;;;9.28;65.38
69971;BME280;57301;50.328;8.542;2023-04-08T10:26:33;99175.47;;;9.38;64.91
69971;BME280;57301;50.328;8.542;2023-04-08T10:31:43;99156.75;;;9.91;65.06
69971;BME280;57301;50.328;8.542;2023-04-08T10:34:17;99147.38;;;10.28;63.96
69971;BME280;57301;50.328;8.542;2023-04-08T10:36:44;99156.47;;;10.85;62.11
69971;BME280;57301;50.328;8.542;2023-04-08T10:39:12;99156.34;;;11.06;64.16
69971;BME280;57301;50.328;8.542;2023-04-08T10:41:43;99147.47;;;11.15;64.34
69971;BME280;57301;50.328;8.542;2023-04-08T10:44:20;99157.88;;;11.18;61.91
69971;BME280;57301;50.328;8.542;2023-04-08T10:46:48;99156.25;;;11.83;62.85
69971;BME280;57301;50.328;8.542;2023-04-08T10:49:16;99152.19;;;12.89;58.11
69971;BME280;57301;50.328;8.542;2023-04-08T10:51:43;99161.88;;;13.43;57.36
69971;BME280;57301;50.328;8.542;2023-04-08T10:54:13;99150.22;;;13.70;54.81
69971;BME280;57301;50.328;8.542;2023-04-08T10:56:47;99152.06;;;14.04;54.14
69971;BME280;57301;50.328;8.542;2023-04-08T10:59:16;99149.63;;;14.19;52.28
69971;BME280;57301;50.328;8.542;2023-04-08T11:01:44;99148.44;;;15.63;53.73
69971;BME280;57301;50.328;8.542;2023-04-08T11:04:16;99144.84;;;15.87;51.12
69971;BME280;57301;50.328;8.542;2023-04-08T11:06:48;99156.75;;;16.09;48.51
69971;BME280;57301;50.328;8.542;2023-04-08T11:09:15;99150.75;;;15.82;48.49
69971;BME280;57301;50.328;8.542;2023-04-08T11:11:43;99150.09;;;15.64;49.93
69971;BME280;57301;50.328;8.542;2023-04-08T11:14:11;99156.91;;;16.16;48.50
69971;BME280;57301;50.328;8.542;2023-04-08T11:16:38;99147.84;;;16.00;49.40
69971;BME280;57301;50.328;8.542;2023-04-08T11:19:05;99150.94;;;15.73;48.95
69971;BME280;57301;50.328;8.542;2023-04-08T11:21:35;99145.75;;;15.22;49.75
69971;BME280;57301;50.328;8.542;2023-04-08T11:24:08;99140.63;;;14.70;51.10
69971;BME280;57301;50.328;8.542;2023-04-08T11:26:35;99144.09;;;14.55;50.08
69971;BME280;57301;50.328;8.542;2023-04-08T11:29:03;99142.91;;;14.15;52.23
69971;BME280;57301;50.328;8.542;2023-04-08T11:31:30;99139.81;;;14.02;53.62
69971;BME280;57301;50.328;8.542;2023-04-08T11:33:57;99139.22;;;13.82;53.39
69971;BME280;57301;50.328;8.542;2023-04-08T11:36:23;99147.34;;;13.98;52.60
69971;BME280;57301;50.328;8.542;2023-04-08T11:38:52;99141.16;;;14.32;52.54
69971;BME280;57301;50.328;8.542;2023-04-08T11:41:19;99139.78;;;14.28;51.49
69971;BME280;57301;50.328;8.542;2023-04-08T11:43:51;99132.06;;;14.75;51.79
69971;BME280;57301;50.328;8.542;2023-04-08T11:46:18;99133.97;;;14.99;51.16
69971;BME280;57301;50.328;8.542;2023-04-08T11:49:02;99136.66;;;15.07;50.54
69971;BME280;57301;50.328;8.542;2023-04-08T11:51:29;99139.66;;;14.80;50.34
69971;BME280;57301;50.328;8.542;2023-04-08T11:53:55;99139.78;;;14.36;52.97
69971;BME280;57301;50.328;8.542;2023-04-08T11:56:24;99136.72;;;14.57;52.92
69971;BME280;57301;50.328;8.542;2023-04-08T11:58:51;99138.28;;;15.90;49.90
69971;BME280;57301;50.328;8.542;2023-04-08T12:01:18;99139.63;;;16.41;48.37
69971;BME280;57301;50.328;8.542;2023-04-08T12:03:56;99140.59;;;16.09;47.19
69971;BME280;57301;50.328;8.542;2023-04-08T12:06:24;99145.72;;;15.71;48.47
69971;BME280;57301;50.328;8.542;2023-04-08T12:08:55;99144.06;;;15.29;49.32
69971;BME280;57301;50.328;8.542;2023-04-08T12:11:22;99142.81;;;14.83;50.33
69971;BME280;57301;50.328;8.542;2023-04-08T12:13:49;99153.66;;;13.89;52.55
69971;BME280;57301;50.328;8.542;2023-04-08T12:16:17;99150.31;;;13.43;53.47
69971;BME280;57301;50.328;8.542;2023-04-08T12:18:44;99149.88;;;13.30;54.26
69971;BME280;57301;50.328;8.542;2023-04-08T12:21:10;99144.50;;;12.94;56.08
69971;BME280;57301;50.328;8.542;2023-04-08T12:23:37;99153.25;;;13.14;55.25
69971;BME280;57301;50.328;8.542;2023-04-08T12:26:03;99154.13;;;13.32;55.55
69971;BME280;57301;50.328;8.542;2023-04-08T12:28:30;99156.84;;;13.05;56.67
69971;BME280;57301;50.328;8.542;2023-04-08T12:30:56;99151.09;;;12.82;56.68
69971;BME280;57301;50.328;8.542;2023-04-08T12:33:23;99153.69;;;12.74;57.93
69971;BME280;57301;50.328;8.542;2023-04-08T12:35:49;99150.69;;;12.59;59.19
69971;BME280;57301;50.328;8.542;2023-04-08T12:38:16;99149.47;;;12.53;58.00
69971;BME280;57301;50.328;8.542;2023-04-08T12:40:43;99149.97;;;12.84;58.67
69971;BME280;57301;50.328;8.542;2023-04-08T12:43:09;99149.97;;;12.84;57.25
69971;BME280;57301;50.328;8.542;2023-04-08T12:45:36;99147.44;;;13.36;55.80
69971;BME280;57301;50.328;8.542;2023-04-08T12:48:03;99140.41;;;13.61;54.10
69971;BME280;57301;50.328;8.542;2023-04-08T12:50:29;99139.09;;;13.65;54.18
69971;BME280;57301;50.328;8.542;2023-04-08T12:52:56;99135.38;;;13.32;55.42
69971;BME280;57301;50.328;8.542;2023-04-08T12:55:22;99138.22;;;13.57;54.78
69971;BME280;57301;50.328;8.542;2023-04-08T12:57:52;99133.97;;;13.72;54.86
69971;BME280;57301;50.328;8.542;2023-04-08T13:00:18;99136.81;;;13.70;54.54
69971;BME280;57301;50.328;8.542;2023-04-08T13:02:45;99142.81;;;13.21;55.46
69971;BME280;57301;50.328;8.542;2023-04-08T13:05:12;99142.00;;;12.93;58.79
69971;BME280;57301;50.328;8.542;2023-04-08T13:07:38;99144.06;;;13.16;57.41
69971;BME280;57301;50.328;8.542;2023-04-08T13:10:06;99140.63;;;13.06;56.64
69971;BME280;57301;50.328;8.542;2023-04-08T13:12:34;99146.44;;;12.84;57.00
69971;BME280;57301;50.328;8.542;2023-04-08T13:15:00;99140.38;;;12.82;58.40
69971;BME280;57301;50.328;8.542;2023-04-08T13:17:27;99147.56;;;12.63;57.75
69971;BME280;57301;50.328;8.542;2023-04-08T13:19:53;99150.50;;;12.43;59.48
69971;BME280;57301;50.328;8.542;2023-04-08T13:22:20;99149.66;;;12.42;58.69
69971;BME280;57301;50.328;8.542;2023-04-08T13:24:46;99155.22;;;12.03;61.02